createdAt,value
2018-11-20T00:02:36.302Z,1.00
2018-11-20T00:05:34.878Z,1.30
2018-11-20T00:08:23.983Z,1.60
2018-11-20T00:11:11.798Z,1.03
2018-11-20T00:13:59.510Z,1.30
2018-11-20T00:16:48.680Z,1.17
2018-11-20T00:19:37.020Z,1.20
2018-11-20T00:22:25.055Z,1.07
2018-11-20T00:25:19.969Z,1.30
2018-11-20T00:28:11.919Z,1.47
2018-11-20T00:30:55.140Z,1.23
2018-11-20T00:33:56.509Z,1.70
2018-11-20T00:36:50.253Z,1.70
2018-11-20T00:39:34.093Z,1.60
2018-11-20T00:42:25.708Z,1.43
2018-11-20T00:45:17.546Z,1.80
2018-11-20T00:48:22.366Z,2.30
2018-11-20T00:51:13.922Z,1.73
2018-11-20T00:54:05.916Z,1.80
2018-11-20T00:56:56.633Z,1.90
2018-11-20T00:59:37.721Z,1.70
2018-11-20T01:02:32.643Z,2.23
2018-11-20T01:05:31.025Z,2.13
2018-11-20T01:08:28.972Z,2.27
2018-11-20T01:11:30.341Z,2.00
2018-11-20T01:14:34.483Z,2.60
2018-11-20T01:17:18.802Z,2.50
2018-11-20T01:23:49.378Z,2.53
2018-11-20T01:26:56.614Z,3.13
2018-11-20T01:30:04.066Z,2.50
2018-11-20T01:33:08.199Z,2.73
2018-11-20T01:36:15.605Z,2.90
2018-11-20T01:39:03.457Z,2.62
2018-11-20T01:41:53.032Z,2.60
2018-11-20T01:44:45.209Z,2.20
2018-11-20T01:47:33.333Z,2.27
2018-11-20T01:50:21.027Z,2.33
2018-11-20T01:53:13.962Z,2.60
2018-11-20T01:56:05.791Z,2.67
2018-11-20T01:58:46.111Z,2.70
2018-11-20T02:01:33.926Z,2.77
2018-11-20T02:04:15.939Z,2.83
2018-11-20T02:07:14.585Z,3.10
2018-11-20T02:09:57.618Z,3.37
2018-11-20T02:12:46.717Z,2.77
2018-11-20T02:15:34.489Z,2.90
2018-11-20T02:18:27.249Z,3.30
2018-11-20T02:21:19.097Z,3.13
2018-11-20T02:24:05.111Z,2.95
2018-11-20T02:27:03.147Z,2.90
2018-11-20T02:30:07.636Z,2.57
2018-11-20T02:33:02.710Z,2.90
2018-11-20T02:35:51.645Z,2.23
2018-11-20T02:38:51.729Z,3.20
2018-11-20T02:41:37.441Z,2.70
2018-11-20T02:44:26.781Z,3.73
2018-11-20T02:47:14.593Z,2.72
2018-11-20T02:50:02.290Z,2.93
2018-11-20T02:52:50.184Z,3.10
2018-11-20T02:55:45.173Z,2.90
2018-11-20T02:58:40.278Z,3.00
2018-11-20T03:01:34.258Z,3.43
2018-11-20T03:04:12.639Z,3.60
2018-11-20T03:07:04.835Z,3.90
2018-11-20T03:09:52.530Z,4.00
2018-11-20T03:12:44.265Z,4.25
2018-11-20T03:15:51.322Z,3.80
2018-11-20T03:18:43.227Z,4.37
2018-11-20T03:21:20.482Z,4.53
2018-11-20T03:24:08.309Z,4.25
2018-11-20T03:27:03.102Z,5.08
2018-11-20T03:30:17.617Z,4.85
2018-11-20T03:33:09.695Z,5.62
2018-11-20T03:36:01.789Z,5.20
2018-11-20T03:38:50.459Z,5.22
2018-11-20T03:41:38.360Z,5.43
2018-11-20T03:44:25.016Z,6.23
2018-11-20T03:48:02.541Z,6.75
2018-11-20T03:50:50.856Z,6.05
2018-11-20T03:53:37.079Z,6.12
2018-11-20T03:56:19.022Z,5.73
2018-11-20T03:59:13.729Z,6.90
2018-11-20T04:02:15.274Z,6.60
2018-11-20T04:05:03.394Z,6.10
2018-11-20T04:08:09.875Z,6.33
2018-11-20T04:10:55.757Z,6.70
2018-11-20T04:13:46.184Z,5.37
2018-11-20T04:16:43.416Z,5.40
2018-11-20T04:19:31.727Z,5.33
2018-11-20T04:22:20.054Z,4.80
2018-11-20T04:25:06.474Z,5.53
2018-11-20T04:27:46.759Z,6.70
2018-11-20T04:31:12.095Z,6.20
2018-11-20T04:34:12.666Z,6.75
2018-11-20T04:36:56.708Z,5.80
2018-11-20T04:39:42.434Z,6.27
2018-11-20T04:42:29.854Z,6.57
2018-11-20T04:45:33.393Z,6.00
2018-11-20T04:48:40.007Z,5.37
2018-11-20T04:51:31.002Z,4.97
2018-11-20T04:54:37.482Z,4.93
2018-11-20T04:57:21.766Z,5.10
2018-11-20T05:00:19.008Z,4.47
2018-11-20T05:03:22.460Z,4.58
2018-11-20T05:06:26.125Z,5.27
2018-11-20T05:09:07.975Z,4.97
2018-11-20T05:12:08.656Z,4.65
2018-11-20T05:14:55.621Z,5.07
2018-11-20T05:17:47.189Z,5.12
2018-11-20T05:20:41.660Z,4.47
2018-11-20T05:23:21.975Z,6.10
2018-11-20T05:26:09.117Z,4.90
2018-11-20T05:28:56.367Z,5.05
2018-11-20T05:31:50.862Z,5.23
2018-11-20T05:34:31.993Z,4.87
2018-11-20T05:37:14.751Z,6.12
2018-11-20T05:40:12.199Z,5.78
2018-11-20T05:43:00.520Z,5.40
2018-11-20T05:45:47.626Z,6.17
2018-11-20T05:48:34.690Z,6.87
2018-11-20T05:51:26.681Z,5.73
2018-11-20T05:54:14.152Z,5.28
2018-11-20T05:57:02.804Z,5.40
2018-11-20T05:59:47.160Z,5.87
2018-11-20T06:02:34.095Z,5.17
2018-11-20T06:05:25.369Z,5.40
2018-11-20T06:08:18.218Z,5.03
2018-11-20T06:11:06.512Z,5.70
2018-11-20T06:13:47.161Z,5.57
2018-11-20T06:16:35.398Z,5.80
2018-11-20T06:19:22.910Z,5.93
2018-11-20T06:22:17.389Z,5.87
2018-11-20T06:25:04.286Z,6.53
2018-11-20T06:27:52.535Z,6.23
2018-11-20T06:30:39.860Z,6.50
2018-11-20T06:33:32.405Z,6.83
2018-11-20T06:36:20.518Z,5.78
2018-11-20T06:39:07.744Z,7.50
2018-11-20T06:42:05.288Z,5.73
2018-11-20T06:44:54.454Z,6.13
2018-11-20T06:47:51.765Z,6.10
2018-11-20T06:50:42.860Z,6.10
2018-11-20T06:53:46.549Z,6.10
2018-11-20T06:56:43.968Z,5.67
2018-11-20T06:59:34.820Z,6.80
2018-11-20T07:02:33.358Z,5.77
2018-11-20T07:05:30.575Z,5.30
2018-11-20T07:08:21.655Z,4.90
2018-11-20T07:11:25.019Z,5.00
2018-11-20T07:14:28.149Z,5.30
2018-11-20T07:17:14.283Z,5.63
2018-11-20T07:20:02.547Z,5.25
2018-11-20T07:22:51.009Z,5.90
2018-11-20T07:25:39.192Z,6.23
2018-11-20T07:28:30.278Z,6.13
2018-11-20T07:31:17.341Z,6.23
2018-11-20T07:34:11.433Z,7.80
2018-11-20T07:36:49.873Z,5.67
2018-11-20T07:39:41.090Z,7.33
2018-11-20T07:42:32.102Z,6.40
2018-11-20T07:45:18.977Z,6.17
2018-11-20T07:48:07.232Z,6.97
2018-11-20T07:50:54.136Z,5.73
2018-11-20T07:53:41.160Z,5.77
2018-11-20T07:56:28.686Z,7.00
2018-11-20T07:59:32.091Z,5.97
2018-11-20T08:02:19.590Z,4.92
2018-11-20T08:05:05.326Z,5.33
2018-11-20T08:08:11.638Z,5.70
2018-11-20T08:10:59.892Z,5.60
2018-11-20T08:13:46.708Z,5.03
2018-11-20T08:16:34.913Z,7.63
2018-11-20T08:19:32.466Z,5.67
2018-11-20T08:22:20.699Z,7.53
2018-11-20T08:25:08.132Z,8.97
2018-11-20T08:27:55.291Z,5.73
2018-11-20T08:30:42.450Z,5.60
2018-11-20T08:33:26.981Z,4.70
2018-11-20T08:36:09.354Z,4.50
2018-11-20T08:38:56.657Z,4.43
2018-11-20T08:41:43.721Z,4.40
2018-11-20T08:44:38.613Z,3.50
2018-11-20T08:47:33.951Z,3.77
2018-11-20T08:50:28.201Z,5.60
2018-11-20T08:53:15.336Z,5.50
2018-11-20T08:56:03.487Z,6.03
2018-11-20T08:58:50.692Z,4.53
2018-11-20T09:01:37.710Z,4.97
2018-11-20T09:04:35.221Z,5.57
2018-11-20T09:07:22.240Z,4.80
2018-11-20T09:10:09.275Z,5.30
2018-11-20T09:12:56.417Z,5.73
2018-11-20T09:15:44.878Z,5.23
2018-11-20T09:18:33.330Z,4.37
2018-11-20T09:21:30.774Z,5.90
2018-11-20T09:24:21.757Z,6.00
2018-11-20T09:27:10.200Z,5.57
2018-11-20T09:29:58.500Z,5.03
2018-11-20T09:32:45.530Z,7.10
2018-11-20T09:35:39.558Z,6.07
2018-11-20T09:38:26.543Z,5.90
2018-11-20T09:41:23.999Z,5.67
2018-11-20T09:44:17.856Z,5.90
2018-11-20T09:47:04.787Z,6.00
2018-11-20T09:49:51.089Z,4.83
2018-11-20T09:52:38.535Z,4.33
2018-11-20T09:55:27.243Z,5.37
2018-11-20T09:58:14.307Z,5.33
2018-11-20T10:01:04.283Z,4.73
2018-11-20T10:03:58.780Z,5.43
2018-11-20T10:06:45.757Z,4.80
2018-11-20T10:09:30.512Z,4.97
2018-11-20T10:12:17.646Z,4.27
2018-11-20T10:15:04.835Z,4.40
2018-11-20T10:17:51.965Z,4.03
2018-11-20T10:20:40.193Z,3.87
2018-11-20T10:23:31.297Z,4.83
2018-11-20T10:26:26.875Z,4.60
2018-11-20T10:29:29.107Z,4.60
2018-11-20T10:32:16.381Z,4.50
2018-11-20T10:35:07.432Z,4.10
2018-11-20T10:37:41.516Z,4.33
2018-11-20T10:40:21.758Z,4.60
2018-11-20T10:43:19.065Z,5.57
2018-11-20T10:46:07.311Z,4.73
2018-11-20T10:49:13.954Z,5.40
2018-11-20T10:52:12.706Z,6.13
2018-11-20T10:55:06.930Z,6.20
2018-11-20T10:58:00.835Z,6.17
2018-11-20T11:00:47.611Z,4.57
2018-11-20T11:03:44.797Z,5.90
2018-11-20T11:06:49.332Z,5.33
2018-11-20T11:09:36.657Z,5.13
2018-11-20T11:12:24.291Z,5.83
2018-11-20T11:15:11.904Z,6.97
2018-11-20T11:18:00.313Z,8.00
2018-11-20T11:20:57.476Z,4.83
2018-11-20T11:23:51.731Z,5.50
2018-11-20T11:26:46.654Z,5.77
2018-11-20T11:29:43.661Z,5.10
2018-11-20T11:32:29.879Z,4.37
2018-11-20T11:35:26.893Z,4.67
2018-11-20T11:38:24.211Z,4.90
2018-11-20T11:41:15.227Z,4.43
2018-11-20T11:44:16.678Z,5.10
2018-11-20T11:47:07.844Z,4.37
2018-11-20T11:50:04.861Z,4.07
2018-11-20T11:52:51.794Z,5.50
2018-11-20T11:55:38.903Z,4.70
2018-11-20T11:58:34.421Z,5.00
2018-11-20T12:01:21.705Z,5.83
2018-11-20T12:03:56.863Z,5.87
2018-11-20T12:06:51.370Z,5.27
2018-11-20T12:09:38.436Z,4.77
2018-11-20T12:12:20.088Z,5.17
2018-11-20T12:15:26.892Z,8.63
2018-11-20T12:18:18.121Z,5.37
2018-11-20T12:21:06.451Z,6.20
2018-11-20T12:23:43.169Z,6.80
2018-11-20T12:26:34.484Z,5.57
2018-11-20T12:29:29.028Z,5.57
2018-11-20T12:32:26.716Z,5.70
2018-11-20T12:35:33.234Z,5.63
2018-11-20T12:38:08.471Z,6.03
2018-11-20T12:40:55.279Z,5.40
2018-11-20T12:43:42.452Z,5.53
2018-11-20T12:46:32.290Z,5.63
2018-11-20T12:49:19.053Z,5.43
2018-11-20T12:52:12.159Z,5.17
2018-11-20T12:55:00.561Z,5.33
2018-11-20T12:57:53.923Z,6.03
2018-11-20T13:00:28.075Z,5.87
2018-11-20T13:03:15.434Z,6.07
2018-11-20T13:06:02.610Z,7.47
2018-11-20T13:09:03.199Z,5.80
2018-11-20T13:11:58.416Z,7.73
2018-11-20T13:14:45.696Z,6.97
2018-11-20T13:17:40.288Z,5.70
2018-11-20T13:20:29.506Z,5.23
2018-11-20T13:23:25.549Z,6.30
2018-11-20T13:26:12.115Z,5.77
2018-11-20T13:28:59.185Z,5.80
2018-11-20T13:32:02.803Z,5.77
2018-11-20T13:35:00.138Z,7.20
2018-11-20T13:37:51.919Z,6.97
2018-11-20T13:41:08.229Z,10.40
2018-11-20T13:44:11.896Z,8.63
2018-11-20T13:46:58.592Z,9.00
2018-11-20T13:49:41.960Z,6.13
2018-11-20T13:52:32.759Z,6.30
2018-11-20T13:55:20.168Z,9.10
2018-11-20T13:58:07.304Z,9.53
2018-11-20T14:01:01.557Z,8.50
2018-11-20T14:03:55.819Z,9.43
2018-11-20T14:06:42.967Z,8.30
2018-11-20T14:09:38.733Z,9.93
2018-11-20T14:12:25.888Z,11.27
2018-11-20T14:15:20.269Z,10.30
2018-11-20T14:18:20.689Z,8.27
2018-11-20T14:21:07.785Z,7.50
2018-11-20T14:24:02.859Z,8.90
2018-11-20T14:27:04.302Z,6.67
2018-11-20T14:29:58.275Z,7.00
2018-11-20T14:32:52.379Z,8.97
2018-11-20T14:35:58.533Z,6.20
2018-11-20T14:39:05.339Z,6.53
2018-11-20T14:42:12.373Z,7.67
2018-11-20T14:44:56.306Z,7.40
2018-11-20T14:47:43.443Z,6.47
2018-11-20T14:50:40.818Z,6.00
2018-11-20T14:53:27.953Z,6.78
2018-11-20T14:56:09.223Z,8.50
2018-11-20T14:58:49.406Z,7.67
2018-11-20T15:01:56.066Z,6.97
2018-11-20T15:04:44.491Z,6.57
2018-11-20T15:07:31.430Z,6.83
2018-11-20T15:10:18.268Z,8.10
2018-11-20T15:13:18.771Z,8.77
2018-11-20T15:16:22.185Z,9.43
2018-11-20T15:19:09.388Z,9.73
2018-11-20T15:21:57.658Z,9.25
2018-11-20T15:24:51.949Z,7.37
2018-11-20T15:27:46.500Z,8.30
2018-11-20T15:30:37.993Z,6.00
2018-11-20T15:33:44.722Z,7.10
2018-11-20T15:36:35.718Z,7.10
2018-11-20T15:39:25.178Z,6.10
2018-11-20T15:42:25.957Z,6.35
2018-11-20T15:45:09.383Z,6.07
2018-11-20T15:48:12.779Z,6.10
2018-11-20T15:51:00.237Z,6.57
2018-11-20T15:53:55.920Z,4.73
2018-11-20T15:56:35.261Z,5.53
2018-11-20T15:59:23.413Z,6.03
2018-11-20T16:02:10.636Z,5.80
2018-11-20T16:05:05.370Z,4.77
2018-11-20T16:07:52.690Z,5.67
2018-11-20T16:10:50.362Z,4.97
2018-11-20T16:13:27.362Z,4.97
2018-11-20T16:16:10.071Z,4.80
2018-11-20T16:18:58.370Z,5.28
2018-11-20T16:21:55.650Z,5.50
2018-11-20T16:24:39.300Z,6.30
2018-11-20T16:27:26.314Z,5.97
2018-11-20T16:30:13.260Z,6.40
2018-11-20T16:33:13.931Z,10.27
2018-11-20T16:36:03.121Z,8.03
2018-11-20T16:38:50.579Z,7.07
2018-11-20T16:41:42.295Z,6.77
2018-11-20T16:44:36.553Z,5.93
2018-11-20T16:47:33.619Z,5.47
2018-11-20T16:50:20.835Z,5.07
2018-11-20T16:53:08.997Z,5.20
2018-11-20T16:55:56.103Z,6.67
2018-11-20T16:58:43.110Z,11.67
2018-11-20T17:01:40.635Z,7.60
2018-11-20T17:04:27.518Z,8.43
2018-11-20T17:07:14.573Z,10.77
2018-11-20T17:10:02.965Z,14.67
2018-11-20T17:12:54.285Z,9.27
2018-11-20T17:15:47.488Z,6.57
2018-11-20T17:18:35.023Z,6.53
2018-11-20T17:21:33.378Z,6.27
2018-11-20T17:24:39.888Z,6.10
2018-11-20T17:27:43.240Z,8.13
2018-11-20T17:30:46.550Z,9.50
2018-11-20T17:33:40.954Z,7.37
2018-11-20T17:36:40.606Z,6.10
2018-11-20T17:39:35.727Z,6.30
2018-11-20T17:42:31.817Z,6.60
2018-11-20T17:45:18.785Z,6.07
2018-11-20T17:48:14.146Z,7.20
2018-11-20T17:50:53.369Z,6.73
2018-11-20T17:53:34.905Z,6.50
2018-11-20T17:56:22.113Z,6.50
2018-11-20T17:59:09.215Z,6.20
2018-11-20T18:01:56.519Z,5.53
2018-11-20T18:05:03.269Z,6.10
2018-11-20T18:08:06.597Z,7.13
2018-11-20T18:10:57.503Z,6.73
2018-11-20T18:13:45.833Z,7.70
2018-11-20T18:16:39.817Z,6.42
2018-11-20T18:19:26.748Z,7.03
2018-11-20T18:22:18.141Z,6.50
2018-11-20T18:25:05.229Z,7.03
2018-11-20T18:27:57.051Z,6.33
2018-11-20T18:30:38.232Z,6.97
2018-11-20T18:33:35.492Z,7.47
2018-11-20T18:36:26.776Z,6.17
2018-11-20T18:39:15.141Z,6.37
2018-11-20T18:42:00.704Z,5.63
2018-11-20T18:44:51.725Z,6.50
2018-11-20T18:47:38.584Z,5.97
2018-11-20T18:50:46.382Z,5.77
2018-11-20T18:53:28.596Z,6.57
2018-11-20T18:56:25.990Z,7.00
2018-11-20T18:59:22.264Z,5.90
2018-11-20T19:02:03.425Z,6.80
2018-11-20T19:04:54.808Z,6.20
2018-11-20T19:07:58.201Z,6.67
2018-11-20T19:11:05.224Z,6.50
2018-11-20T19:13:52.036Z,6.47
2018-11-20T19:16:38.994Z,6.73
2018-11-20T19:19:18.722Z,6.53
2018-11-20T19:22:06.818Z,8.27
2018-11-20T19:24:53.976Z,6.83
2018-11-20T19:27:41.122Z,7.90
2018-11-20T19:30:28.532Z,7.50
2018-11-20T19:33:30.184Z,7.63
2018-11-20T19:36:18.363Z,7.40
2018-11-20T19:39:09.708Z,7.00
2018-11-20T19:41:52.004Z,9.53
2018-11-20T19:44:39.836Z,7.57
2018-11-20T19:47:20.695Z,8.33
2018-11-20T19:50:17.710Z,8.53
2018-11-20T19:53:03.847Z,7.57
2018-11-20T19:55:50.957Z,7.73
2018-11-20T19:58:51.229Z,7.47
2018-11-20T20:01:33.198Z,7.90
2018-11-20T20:04:18.660Z,7.83
2018-11-20T20:07:05.637Z,7.83
2018-11-20T20:09:53.944Z,8.70
2018-11-20T20:12:51.463Z,8.13
2018-11-20T20:15:55.638Z,8.17
2018-11-20T20:18:52.943Z,7.60
2018-11-20T20:21:39.750Z,7.33
2018-11-20T20:24:46.444Z,7.77
2018-11-20T20:27:33.433Z,6.47
2018-11-20T20:30:30.887Z,7.22
2018-11-20T20:33:19.257Z,7.67
2018-11-20T20:36:06.481Z,8.30
2018-11-20T20:39:12.950Z,11.17
2018-11-20T20:42:03.997Z,8.78
2018-11-20T20:45:04.319Z,7.63
2018-11-20T20:47:51.562Z,8.30
2018-11-20T20:50:37.551Z,8.15
2018-11-20T20:53:24.756Z,7.50
2018-11-20T20:56:24.983Z,9.60
2018-11-20T20:59:24.083Z,8.60
2018-11-20T21:02:24.172Z,8.53
2018-11-20T21:05:15.697Z,7.47
2018-11-20T21:08:16.189Z,8.10
2018-11-20T21:10:59.556Z,8.10
2018-11-20T21:13:54.449Z,7.30
2018-11-20T21:16:36.763Z,8.03
2018-11-20T21:19:37.059Z,8.40
2018-11-20T21:22:25.303Z,8.50
2018-11-20T21:25:07.817Z,8.90
2018-11-20T21:27:59.085Z,8.37
2018-11-20T21:31:02.857Z,9.30
2018-11-20T21:33:57.246Z,9.73
2018-11-20T21:36:44.314Z,9.23
2018-11-20T21:39:48.029Z,9.37
2018-11-20T21:42:36.347Z,9.30
2018-11-20T21:45:24.658Z,9.80
2018-11-20T21:48:15.153Z,8.70
2018-11-20T21:51:02.152Z,8.57
2018-11-20T21:53:46.725Z,9.10
2018-11-20T21:56:27.961Z,9.25
2018-11-20T21:59:16.914Z,10.37
2018-11-20T22:02:04.953Z,8.80
2018-11-20T22:05:01.303Z,10.40
2018-11-20T22:07:52.868Z,9.30
2018-11-20T22:10:50.247Z,9.27
2018-11-20T22:13:37.122Z,9.93
2018-11-20T22:16:17.471Z,9.13
2018-11-20T22:19:04.547Z,9.95
2018-11-20T22:21:51.779Z,10.37
2018-11-20T22:24:49.286Z,10.00
2018-11-20T22:27:47.121Z,10.57
2018-11-20T22:30:34.211Z,10.43
2018-11-20T22:33:21.226Z,10.17
2018-11-20T22:36:08.618Z,10.03
2018-11-20T22:39:11.967Z,10.33
2018-11-20T22:41:51.989Z,10.23
2018-11-20T22:44:43.066Z,11.35
2018-11-20T22:47:34.183Z,10.18
2018-11-20T22:50:17.960Z,11.05
2018-11-20T22:53:05.192Z,10.53
2018-11-20T22:55:52.292Z,11.03
2018-11-20T22:58:39.582Z,10.23
2018-11-20T23:01:27.856Z,10.63
2018-11-20T23:04:19.123Z,10.13
2018-11-20T23:07:13.282Z,11.23
2018-11-20T23:09:42.379Z,10.23
2018-11-20T23:12:11.481Z,11.20
2018-11-20T23:14:40.699Z,11.27
2018-11-20T23:17:09.881Z,11.97
2018-11-20T23:19:38.988Z,11.20
2018-11-20T23:22:08.026Z,11.53
2018-11-20T23:24:39.856Z,11.37
2018-11-20T23:27:09.796Z,11.60
2018-11-20T23:29:38.195Z,11.67
2018-11-20T23:32:07.837Z,11.68
2018-11-20T23:34:37.009Z,11.13
2018-11-20T23:37:06.381Z,11.55
2018-11-20T23:39:35.776Z,11.48
2018-11-20T23:42:05.258Z,10.90
2018-11-20T23:44:34.279Z,11.87
2018-11-20T23:47:03.426Z,11.15
2018-11-20T23:49:32.523Z,11.12
2018-11-20T23:52:01.775Z,10.95
2018-11-20T23:54:30.852Z,11.20
2018-11-20T23:56:59.954Z,11.53
2018-11-20T23:59:29.041Z,11.05
